createdAt,value
2023-02-09T00:00:05.566Z,-6.4
2023-02-09T00:02:05.409Z,-6.3
2023-02-09T00:04:08.361Z,-6.4
2023-02-09T00:06:05.011Z,-6.3
2023-02-09T00:08:05.051Z,-6.2
2023-02-09T00:10:08.264Z,-6.1
2023-02-09T00:14:05.072Z,-6.3
2023-02-09T00:16:08.006Z,-6.3
2023-02-09T00:18:05.727Z,-6.3
2023-02-09T00:20:05.028Z,-6.4
2023-02-09T00:22:05.751Z,-6.5
2023-02-09T00:24:05.036Z,-6.3
2023-02-09T00:26:05.013Z,-6.4
2023-02-09T00:28:05.806Z,-6.6
2023-02-09T00:30:05.061Z,-6.4
2023-02-09T00:32:07.678Z,-6.4
2023-02-09T00:34:05.036Z,-6.4
2023-02-09T00:36:10.875Z,-6.4
2023-02-09T00:38:05.447Z,-6.4
2023-02-09T00:40:05.039Z,-6.4
2023-02-09T00:42:05.749Z,-6.3
2023-02-09T00:44:05.005Z,-6.3
2023-02-09T00:46:07.647Z,-6.3
2023-02-09T00:48:05.014Z,-6.3
2023-02-09T00:50:05.050Z,-6.4
2023-02-09T00:52:09.875Z,-6.4
2023-02-09T00:54:08.421Z,-6.4
2023-02-09T00:58:05.009Z,-6.4
2023-02-09T01:00:08.276Z,-6.4
2023-02-09T01:02:05.062Z,-6.3
2023-02-09T01:04:05.042Z,-6.4
2023-02-09T01:06:09.491Z,-6.5
2023-02-09T01:08:05.016Z,-6.7
2023-02-09T01:10:05.049Z,-6.7
2023-02-09T01:12:05.867Z,-6.8
2023-02-09T01:14:05.023Z,-6.7
2023-02-09T01:16:05.041Z,-6.6
2023-02-09T01:18:04.997Z,-6.7
2023-02-09T01:20:05.006Z,-6.6
2023-02-09T01:22:11.484Z,-6.4
2023-02-09T01:24:05.004Z,-6.3
2023-02-09T01:26:07.837Z,-6.5
2023-02-09T01:28:11.805Z,-6.4
2023-02-09T01:30:05.024Z,-6.6
2023-02-09T01:32:11.502Z,-6.7
2023-02-09T01:34:05.452Z,-6.8
2023-02-09T01:38:11.423Z,-7
2023-02-09T01:40:08.533Z,-6.9
2023-02-09T01:42:06.334Z,-6.9
2023-02-09T01:44:05.006Z,-6.7
2023-02-09T01:46:05.559Z,-6.7
2023-02-09T01:48:08.251Z,-6.6
2023-02-09T01:50:05.050Z,-6.6
2023-02-09T01:54:11.399Z,-6.5
2023-02-09T01:56:08.183Z,-6.5
2023-02-09T01:58:07.591Z,-6.5
2023-02-09T02:02:05.017Z,-6.6
2023-02-09T02:04:05.026Z,-6.6
2023-02-09T02:06:07.870Z,-6.6
2023-02-09T02:08:05.017Z,-6.6
2023-02-09T02:10:05.056Z,-6.6
2023-02-09T02:12:05.450Z,-6.6
2023-02-09T02:16:05.067Z,-6.7
2023-02-09T02:18:05.060Z,-6.7
2023-02-09T02:20:05.024Z,-6.6
2023-02-09T02:22:05.126Z,-6.6
2023-02-09T02:24:05.181Z,-6.6
2023-02-09T02:26:08.241Z,-6.7
2023-02-09T02:28:05.060Z,-6.6
2023-02-09T02:30:05.429Z,-6.7
2023-02-09T02:32:05.061Z,-6.8
2023-02-09T02:34:05.041Z,-6.9
2023-02-09T02:36:05.047Z,-6.9
2023-02-09T02:38:05.021Z,-7
2023-02-09T02:40:05.502Z,-7.2
2023-02-09T02:42:05.036Z,-7.1
2023-02-09T02:44:07.849Z,-7.2
2023-02-09T02:46:05.035Z,-7.2
2023-02-09T02:48:07.596Z,-7.3
2023-02-09T02:50:08.068Z,-7.3
2023-02-09T02:52:06.338Z,-7.3
2023-02-09T02:54:05.451Z,-7.2
2023-02-09T02:56:05.039Z,-7.2
2023-02-09T02:58:05.047Z,-7.2
2023-02-09T03:00:07.867Z,-7.2
2023-02-09T03:02:05.046Z,-7.2
2023-02-09T03:04:06.372Z,-7.1
2023-02-09T03:06:05.059Z,-7
2023-02-09T03:08:11.166Z,-7.2
2023-02-09T03:10:05.040Z,-7.2
2023-02-09T03:12:07.639Z,-7.1
2023-02-09T03:14:08.567Z,-7.1
2023-02-09T03:16:08.330Z,-7.1
2023-02-09T03:20:05.056Z,-7.3
2023-02-09T03:22:05.045Z,-7.2
2023-02-09T03:24:05.038Z,-7.2
2023-02-09T03:28:05.071Z,-7.1
2023-02-09T03:30:05.749Z,-7
2023-02-09T03:32:08.162Z,-7
2023-02-09T03:34:10.806Z,-6.9
2023-02-09T03:36:05.486Z,-6.9
2023-02-09T03:38:05.067Z,-7
2023-02-09T03:40:05.049Z,-6.9
2023-02-09T03:42:05.085Z,-7
2023-02-09T03:44:05.069Z,-6.9
2023-02-09T03:46:05.464Z,-7
2023-02-09T03:50:05.455Z,-7
2023-02-09T03:52:05.451Z,-7
2023-02-09T03:54:07.900Z,-7
2023-02-09T03:56:05.051Z,-7
2023-02-09T03:58:07.648Z,-7
2023-02-09T04:00:05.089Z,-7
2023-02-09T04:02:05.536Z,-7
2023-02-09T04:04:05.051Z,-7.2
2023-02-09T04:06:05.430Z,-7.3
2023-02-09T04:08:05.517Z,-7.2
2023-02-09T04:10:05.037Z,-7.1
2023-02-09T04:12:05.046Z,-7.2
2023-02-09T04:14:06.358Z,-7.2
2023-02-09T04:18:05.045Z,-7.1
2023-02-09T04:20:05.588Z,-7.2
2023-02-09T04:22:05.061Z,-7.3
2023-02-09T04:24:05.036Z,-7.4
2023-02-09T04:26:05.785Z,-7.6
2023-02-09T04:28:08.302Z,-7.6
2023-02-09T04:30:05.077Z,-7.6
2023-02-09T04:32:05.136Z,-7.6
2023-02-09T04:34:05.063Z,-7.8
2023-02-09T04:36:05.048Z,-7.9
2023-02-09T04:38:08.270Z,-8
2023-02-09T04:40:07.759Z,-8.2
2023-02-09T04:42:05.060Z,-8.1
2023-02-09T04:44:06.350Z,-7.9
2023-02-09T04:46:11.269Z,-7.8
2023-02-09T04:48:05.515Z,-7.7
2023-02-09T04:50:05.061Z,-7.4
2023-02-09T04:52:11.435Z,-7.4
2023-02-09T04:54:05.071Z,-7.5
2023-02-09T04:56:05.104Z,-7.7
2023-02-09T04:58:05.089Z,-7.9
2023-02-09T05:00:05.580Z,-7.9
2023-02-09T05:02:11.441Z,-7.6
2023-02-09T05:04:05.073Z,-7.6
2023-02-09T05:06:05.048Z,-7.3
2023-02-09T05:08:05.057Z,-7.4
2023-02-09T05:10:08.300Z,-7.7
2023-02-09T05:12:05.495Z,-7.8
2023-02-09T05:14:08.301Z,-7.9
2023-02-09T05:18:05.056Z,-8
2023-02-09T05:20:05.079Z,-8.1
2023-02-09T05:22:08.243Z,-7.8
2023-02-09T05:24:05.067Z,-7.7
2023-02-09T05:26:05.126Z,-7.6
2023-02-09T05:28:06.389Z,-7.8
2023-02-09T05:32:05.523Z,-8.4
2023-02-09T05:34:05.051Z,-8.3
2023-02-09T05:36:06.320Z,-8.3
2023-02-09T05:40:05.392Z,-8.1
2023-02-09T05:46:30.068Z,-8.5
2023-02-09T05:50:36.711Z,-8.5
2023-02-09T05:52:36.263Z,-8.7
2023-02-09T05:54:36.308Z,-8.7
2023-02-09T05:56:36.315Z,-8.5
2023-02-09T05:58:30.017Z,-8.5
2023-02-09T06:00:35.033Z,-8.5
2023-02-09T06:02:36.595Z,-8.4
2023-02-09T06:04:33.645Z,-8.1
2023-02-09T06:06:35.655Z,-7.9
2023-02-09T06:10:36.869Z,-8
2023-02-09T06:12:33.850Z,-8
2023-02-09T06:14:31.147Z,-8
2023-02-09T06:16:37.699Z,-8
2023-02-09T06:18:35.719Z,-8
2023-02-09T06:20:37.435Z,-8
2023-02-09T06:24:35.040Z,-8.2
2023-02-09T06:26:30.861Z,-8.2
2023-02-09T06:28:37.549Z,-8.3
2023-02-09T06:30:35.572Z,-8.4
2023-02-09T06:32:35.715Z,-8.4
2023-02-09T06:34:37.361Z,-8.4
2023-02-09T06:36:37.317Z,-8.4
2023-02-09T06:38:33.684Z,-8.5
2023-02-09T06:42:37.372Z,-8.4
2023-02-09T06:44:35.956Z,-8.4
2023-02-09T06:46:33.804Z,-8.1
2023-02-09T06:50:35.473Z,-8.3
2023-02-09T06:52:34.533Z,-8.4
2023-02-09T06:54:37.568Z,-8.5
2023-02-09T06:56:32.060Z,-8.3
2023-02-09T06:58:30.039Z,-8.1
2023-02-09T07:00:37.415Z,-8
2023-02-09T07:02:36.456Z,-7.7
2023-02-09T07:04:34.939Z,-7.6
2023-02-09T07:06:36.191Z,-7.6
2023-02-09T07:08:35.053Z,-7.6
2023-02-09T07:12:32.064Z,-7.5
2023-02-09T07:14:30.413Z,-7.5
2023-02-09T07:16:36.203Z,-7.3
2023-02-09T07:20:30.424Z,-7.2
2023-02-09T07:22:36.737Z,-7.2
2023-02-09T07:24:37.454Z,-7.1
2023-02-09T07:26:30.731Z,-6.9
2023-02-09T07:28:31.919Z,-7
2023-02-09T07:32:34.967Z,-6.8
2023-02-09T07:34:31.433Z,-6.8
2023-02-09T07:38:35.876Z,-6.7
2023-02-09T07:40:35.684Z,-6.6
2023-02-09T07:42:37.275Z,-6.2
2023-02-09T07:44:35.745Z,-6.1
2023-02-09T07:46:33.914Z,-6.4
2023-02-09T07:48:37.562Z,-6.1
2023-02-09T07:50:34.636Z,-6
2023-02-09T07:52:36.426Z,-5.8
2023-02-09T07:54:37.514Z,-5.7
2023-02-09T07:56:36.064Z,-5.8
2023-02-09T07:58:31.892Z,-5.8
2023-02-09T08:00:37.414Z,-5.7
2023-02-09T08:02:35.393Z,-5.6
2023-02-09T08:04:31.607Z,-5.6
2023-02-09T08:10:35.978Z,-4.1
2023-02-09T08:12:30.347Z,-1.5
2023-02-09T08:14:37.524Z,-0.1
2023-02-09T08:16:34.783Z,-0.1
2023-02-09T08:18:34.022Z,0
2023-02-09T08:20:39.543Z,0
2023-02-09T08:22:35.736Z,0.1
2023-02-09T08:24:37.565Z,0.2
2023-02-09T08:28:43.456Z,0.2
2023-02-09T08:30:36.834Z,0.2
2023-02-09T08:32:36.819Z,0.1
2023-02-09T08:34:32.303Z,0.1
2023-02-09T08:36:36.626Z,0.2
2023-02-09T08:38:33.003Z,0.2
2023-02-09T08:40:36.714Z,0.3
2023-02-09T08:42:36.541Z,0.4
2023-02-09T08:44:36.227Z,0.4
2023-02-09T08:46:33.555Z,0.5
2023-02-09T08:48:36.183Z,0.5
2023-02-09T08:50:35.617Z,0.6
2023-02-09T08:52:34.710Z,0.6
2023-02-09T08:54:35.087Z,0.5
2023-02-09T08:56:32.101Z,0.5
2023-02-09T08:58:33.743Z,0.6
2023-02-09T09:00:36.742Z,0.6
2023-02-09T09:02:32.756Z,0.7
2023-02-09T09:06:34.999Z,0.7
2023-02-09T09:08:35.593Z,0.7
2023-02-09T09:10:35.174Z,0.7
2023-02-09T09:12:36.675Z,0.7
2023-02-09T09:14:35.006Z,0.7
2023-02-09T09:16:33.728Z,0.6
2023-02-09T09:18:34.190Z,0.5
2023-02-09T09:20:33.561Z,0.5
2023-02-09T09:22:36.912Z,0.6
2023-02-09T09:24:34.250Z,0.6
2023-02-09T09:26:36.403Z,0.5
2023-02-09T09:30:33.483Z,0.4
2023-02-09T09:32:33.389Z,0.4
2023-02-09T09:34:30.515Z,0.4
2023-02-09T09:36:35.238Z,0.5
2023-02-09T09:38:37.703Z,0.6
2023-02-09T09:40:30.669Z,0.7
2023-02-09T09:42:31.408Z,0.9
2023-02-09T09:46:31.300Z,1
2023-02-09T09:48:31.056Z,1.1
2023-02-09T09:50:30.357Z,1
2023-02-09T09:52:31.743Z,0.8
2023-02-09T09:54:30.832Z,0.8
2023-02-09T09:58:31.913Z,0.8
2023-02-09T10:00:31.503Z,0.9
2023-02-09T10:02:31.582Z,0.9
2023-02-09T10:06:30.759Z,1
2023-02-09T10:08:31.265Z,1
2023-02-09T10:10:32.220Z,1.1
2023-02-09T10:12:30.855Z,1.1
2023-02-09T10:14:31.300Z,1.1
2023-02-09T10:16:30.729Z,1.2
2023-02-09T10:20:30.658Z,1.3
2023-02-09T10:22:31.073Z,1.3
2023-02-09T10:24:31.196Z,1.4
2023-02-09T10:26:31.868Z,1.3
2023-02-09T10:28:31.446Z,1.3
2023-02-09T10:30:31.126Z,1.4
2023-02-09T10:32:32.275Z,1.4
2023-02-09T10:34:30.242Z,1.5
2023-02-09T10:36:30.568Z,1.5
2023-02-09T10:38:33.107Z,1.5
2023-02-09T10:40:31.265Z,1.3
2023-02-09T10:42:31.804Z,1.2
2023-02-09T10:44:31.750Z,1.2
2023-02-09T10:46:30.960Z,1.3
2023-02-09T10:48:31.805Z,1.4
2023-02-09T10:50:31.090Z,1.4
2023-02-09T10:52:31.464Z,1.4
2023-02-09T10:54:32.291Z,1.3
2023-02-09T10:56:31.417Z,1.3
2023-02-09T10:58:31.094Z,1.3
2023-02-09T11:00:31.919Z,1.3
2023-02-09T11:02:31.237Z,1.1
2023-02-09T11:04:31.508Z,1.1
2023-02-09T11:06:32.019Z,1.3
2023-02-09T11:08:31.901Z,1.4
2023-02-09T11:10:31.307Z,1.5
2023-02-09T11:12:31.778Z,1.5
2023-02-09T11:14:31.158Z,1.6
2023-02-09T11:16:30.767Z,1.6
2023-02-09T11:18:31.657Z,1.6
2023-02-09T11:20:30.344Z,1.7
2023-02-09T11:22:31.449Z,1.7
2023-02-09T11:24:31.853Z,1.7
2023-02-09T11:26:30.600Z,1.7
2023-02-09T11:28:31.500Z,1.7
2023-02-09T11:30:31.753Z,1.7
2023-02-09T11:32:30.959Z,1.8
2023-02-09T11:34:33.128Z,1.8
2023-02-09T11:38:30.629Z,1.8
2023-02-09T11:40:31.792Z,1.8
2023-02-09T11:42:31.858Z,1.8
2023-02-09T11:44:31.821Z,1.8
2023-02-09T11:46:32.024Z,1.8
2023-02-09T11:48:31.107Z,1.8
2023-02-09T11:50:33.245Z,1.8
2023-02-09T11:52:31.083Z,1.8
2023-02-09T11:54:30.703Z,1.9
2023-02-09T11:58:31.065Z,1.8
2023-02-09T12:02:31.446Z,1.9
2023-02-09T12:04:30.473Z,1.9
2023-02-09T12:06:31.831Z,1.9
2023-02-09T12:08:31.151Z,1.9
2023-02-09T12:10:31.016Z,1.9
2023-02-09T12:12:31.900Z,1.9
2023-02-09T12:14:30.619Z,1.9
2023-02-09T12:16:32.454Z,1.9
2023-02-09T12:18:30.628Z,1.9
2023-02-09T12:20:32.977Z,1.9
2023-02-09T12:22:31.786Z,1.9
2023-02-09T12:24:30.306Z,1.9
2023-02-09T12:26:31.643Z,1.9
2023-02-09T12:28:31.600Z,1.9
2023-02-09T12:30:31.964Z,2
2023-02-09T12:32:31.557Z,1.9
2023-02-09T12:34:31.918Z,2
2023-02-09T12:36:30.787Z,2
2023-02-09T12:38:32.707Z,2
2023-02-09T12:40:30.654Z,2
2023-02-09T12:42:31.347Z,2
2023-02-09T12:44:31.818Z,2.1
2023-02-09T12:46:30.304Z,2.1
2023-02-09T12:48:33.438Z,2.1
2023-02-09T12:50:31.052Z,2.1
2023-02-09T12:52:31.423Z,2.1
2023-02-09T12:54:36.117Z,2.1
2023-02-09T12:56:32.127Z,2
2023-02-09T12:58:31.202Z,2
2023-02-09T13:04:31.199Z,2.2
2023-02-09T13:06:31.175Z,2.2
2023-02-09T13:08:31.063Z,2.2
2023-02-09T13:10:30.376Z,2.2
2023-02-09T13:12:32.357Z,2.2
2023-02-09T13:16:31.271Z,2.2
2023-02-09T13:18:32.431Z,2.2
2023-02-09T13:20:31.988Z,2.2
2023-02-09T13:22:30.722Z,2.2
2023-02-09T13:24:31.841Z,2.2
2023-02-09T13:26:31.581Z,2.2
2023-02-09T13:28:32.212Z,2.2
2023-02-09T13:30:31.039Z,2.2
2023-02-09T13:32:31.111Z,2.3
2023-02-09T13:34:32.133Z,2.3
2023-02-09T13:36:30.558Z,2.3
2023-02-09T13:38:33.163Z,2.2
2023-02-09T13:40:31.883Z,2.2
2023-02-09T13:42:31.600Z,2.1
2023-02-09T13:44:31.337Z,2.1
2023-02-09T13:46:31.561Z,2.2
2023-02-09T13:48:30.744Z,2.1
2023-02-09T13:50:31.800Z,2.2
2023-02-09T13:52:30.602Z,2.2
2023-02-09T13:54:31.378Z,2.2
2023-02-09T13:56:32.408Z,2.2
2023-02-09T13:58:31.217Z,2.2
2023-02-09T14:00:30.958Z,2.2
2023-02-09T14:02:33.318Z,2.2
2023-02-09T14:04:31.556Z,2
2023-02-09T14:06:31.950Z,2.1
2023-02-09T14:10:30.305Z,2.2
2023-02-09T14:12:32.278Z,2.3
2023-02-09T14:16:30.784Z,2.3
2023-02-09T14:18:31.852Z,2.3
2023-02-09T14:20:31.516Z,2.3
2023-02-09T14:22:30.729Z,2.3
2023-02-09T14:24:31.792Z,2.3
2023-02-09T14:26:31.895Z,2.3
2023-02-09T14:28:30.315Z,2.2
2023-02-09T14:30:30.679Z,2.2
2023-02-09T14:32:33.177Z,2.3
2023-02-09T14:34:30.701Z,2.2
2023-02-09T14:36:31.401Z,2.2
2023-02-09T14:38:31.807Z,2.2
2023-02-09T14:40:31.195Z,2.2
2023-02-09T14:42:31.184Z,2.2
2023-02-09T14:44:31.794Z,2.2
2023-02-09T14:46:32.161Z,2.2
2023-02-09T14:48:31.552Z,2.2
2023-02-09T14:50:31.506Z,2.2
2023-02-09T14:52:30.349Z,2.2
2023-02-09T14:54:31.207Z,2.2
2023-02-09T14:56:33.394Z,2.2
2023-02-09T14:58:30.571Z,2.2
2023-02-09T15:00:30.880Z,2.2
2023-02-09T15:02:34.287Z,2.2
2023-02-09T15:04:30.470Z,2.2
2023-02-09T15:06:31.615Z,2.1
2023-02-09T15:10:31.167Z,2.1
2023-02-09T15:12:30.286Z,2.1
2023-02-09T15:14:34.142Z,2.1
2023-02-09T15:16:30.362Z,2.1
2023-02-09T15:22:30.366Z,2.1
2023-02-09T15:24:30.771Z,2.1
2023-02-09T15:26:36.862Z,2.1
2023-02-09T15:28:30.501Z,2.1
2023-02-09T15:30:30.741Z,2
2023-02-09T15:32:33.100Z,1.9
2023-02-09T15:34:32.474Z,1.9
2023-02-09T15:36:31.227Z,1.8
2023-02-09T15:40:30.375Z,1.8
2023-02-09T15:42:31.284Z,1.8
2023-02-09T15:46:30.933Z,0.6
2023-02-09T15:48:30.589Z,0.1
2023-02-09T15:50:30.960Z,0
2023-02-09T15:52:32.635Z,-0.1
2023-02-09T15:54:31.188Z,-0.2
2023-02-09T15:56:31.968Z,-0.3
2023-02-09T15:58:35.185Z,-0.5
2023-02-09T16:00:30.871Z,-0.5
2023-02-09T16:02:31.385Z,-0.6
2023-02-09T16:04:31.779Z,-0.7
2023-02-09T16:06:30.418Z,-0.7
2023-02-09T16:10:31.223Z,-1
2023-02-09T16:12:30.366Z,-1.1
2023-02-09T16:14:31.801Z,-1.1
2023-02-09T16:16:31.460Z,-1.3
2023-02-09T16:18:30.561Z,-1.4
2023-02-09T16:20:32.647Z,-1.4
2023-02-09T16:22:31.273Z,-1.5
2023-02-09T16:24:30.784Z,-1.5
2023-02-09T16:26:30.881Z,-1.5
2023-02-09T16:28:31.422Z,-1.4
2023-02-09T16:30:32.485Z,-1.7
2023-02-09T16:32:31.353Z,-1.7
2023-02-09T16:34:31.319Z,-1.7
2023-02-09T16:36:32.331Z,-1.7
2023-02-09T16:38:31.337Z,-1.8
2023-02-09T16:40:31.632Z,-1.9
2023-02-09T16:42:31.843Z,-2
2023-02-09T16:44:30.823Z,-2.1
2023-02-09T16:46:31.206Z,-2.3
2023-02-09T16:48:31.319Z,-2.3
2023-02-09T16:50:32.805Z,-2.3
2023-02-09T16:52:31.345Z,-2.3
2023-02-09T16:54:30.861Z,-2.2
2023-02-09T16:58:31.305Z,-2.3
2023-02-09T17:00:31.633Z,-2.5
2023-02-09T17:02:30.828Z,-2.4
2023-02-09T17:04:32.235Z,-2.4
2023-02-09T17:06:31.191Z,-2.5
2023-02-09T17:08:30.909Z,-2.4
2023-02-09T17:10:31.317Z,-2.5
2023-02-09T17:12:31.392Z,-2.5
2023-02-09T17:18:53.882Z,-2.5
2023-02-09T17:18:59.265Z,-2.5
2023-02-09T17:22:59.913Z,-2.6
2023-02-09T17:24:54.543Z,-2.7
2023-02-09T17:26:59.096Z,-2.8
2023-02-09T17:29:00.268Z,-2.6
2023-02-09T17:31:00.037Z,-2.6
2023-02-09T17:32:57.268Z,-2.5
2023-02-09T17:36:59.078Z,-2.6
2023-02-09T17:38:56.909Z,-2.6
2023-02-09T17:41:00.569Z,-2.5
2023-02-09T17:42:53.717Z,-2.4
2023-02-09T17:44:57.650Z,-2.3
2023-02-09T17:47:00.076Z,-2.3
2023-02-09T17:48:53.774Z,-2.5
2023-02-09T17:50:56.889Z,-2.7
2023-02-09T17:53:00.107Z,-2.8
2023-02-09T17:54:55.350Z,-2.8
2023-02-09T17:56:56.764Z,-2.8
2023-02-09T18:00:57.941Z,-2.7
2023-02-09T18:02:58.637Z,-2.8
2023-02-09T18:06:59.442Z,-2.9
2023-02-09T18:08:58.868Z,-2.9
2023-02-09T18:11:00.444Z,-2.9
2023-02-09T18:12:58.177Z,-2.8
2023-02-09T18:14:57.703Z,-2.8
2023-02-09T18:18:58.588Z,-3
2023-02-09T18:20:54.192Z,-2.9
2023-02-09T18:25:00.556Z,-3
2023-02-09T18:26:53.652Z,-3
2023-02-09T18:28:54.877Z,-3
2023-02-09T18:31:00.463Z,-2.9
2023-02-09T18:32:55.834Z,-2.8
2023-02-09T18:34:57.329Z,-2.9
2023-02-09T18:39:00.809Z,-3
2023-02-09T18:40:56.443Z,-3
2023-02-09T18:44:53.751Z,-3
2023-02-09T18:46:53.718Z,-2.9
2023-02-09T18:50:55.041Z,-2.9
2023-02-09T18:52:56.822Z,-3
2023-02-09T18:56:53.755Z,-3.1
2023-02-09T18:58:57.689Z,-3.1
2023-02-09T19:01:00.397Z,-3.3
2023-02-09T19:02:54.313Z,-3.5
2023-02-09T19:04:56.291Z,-3.5
2023-02-09T19:08:57.217Z,-3.7
2023-02-09T19:10:57.352Z,-3.9
2023-02-09T19:13:00.217Z,-4
2023-02-09T19:14:53.760Z,-3.9
2023-02-09T19:16:57.380Z,-3.8
2023-02-09T19:20:57.765Z,-3.9
2023-02-09T19:22:57.257Z,-4
2023-02-09T19:26:54.086Z,-3.8
2023-02-09T19:28:54.060Z,-3.7
2023-02-09T19:31:00.626Z,-3.8
2023-02-09T19:32:56.935Z,-3.7
2023-02-09T19:34:57.783Z,-3.7
2023-02-09T19:38:56.400Z,-3.7
2023-02-09T19:41:09.653Z,-3.7
2023-02-09T19:44:53.764Z,-3.8
2023-02-09T19:46:56.954Z,-3.9
2023-02-09T19:50:57.364Z,-4.3
2023-02-09T19:52:59.999Z,-4.4
2023-02-09T19:57:00.414Z,-4.4
2023-02-09T19:58:54.016Z,-4.4
2023-02-09T20:02:53.892Z,-4.5
2023-02-09T20:04:56.265Z,-4.5
2023-02-09T20:08:53.831Z,-4.5
2023-02-09T20:10:56.246Z,-4.7
2023-02-09T20:13:01.167Z,-4.6
2023-02-09T20:14:54.958Z,-4.4
2023-02-09T20:16:54.370Z,-4.1
2023-02-09T20:20:53.608Z,-4.1
2023-02-09T20:22:54.970Z,-4.1
2023-02-09T20:25:01.589Z,-4.1
2023-02-09T20:26:57.382Z,-3.9
2023-02-09T20:28:54.559Z,-3.9
2023-02-09T20:30:56.228Z,-4
2023-02-09T20:33:00.662Z,-3.7
2023-02-09T20:34:59.666Z,-3.8
2023-02-09T20:38:53.767Z,-3.8
2023-02-09T20:40:57.358Z,-3.9
2023-02-09T20:43:00.728Z,-3.7
2023-02-09T20:44:54.117Z,-3.7
2023-02-09T20:46:56.689Z,-3.5
2023-02-09T20:50:54.127Z,-3.8
2023-02-09T20:52:58.112Z,-3.7
2023-02-09T20:55:00.629Z,-4
2023-02-09T20:56:56.986Z,-4.2
2023-02-09T20:58:55.975Z,-4.3
2023-02-09T21:02:57.492Z,-4.1
2023-02-09T21:04:57.368Z,-4
2023-02-09T21:07:00.617Z,-4.1
2023-02-09T21:08:53.746Z,-4.1
2023-02-09T21:10:54.969Z,-4.1
2023-02-09T21:13:03.543Z,-4.3
2023-02-09T21:14:53.665Z,-4.4
2023-02-09T21:16:54.923Z,-4.3
2023-02-09T21:20:54.546Z,-3.9
2023-02-09T21:22:59.169Z,-3.8
2023-02-09T21:25:00.209Z,-3.9
2023-02-09T21:26:53.822Z,-3.7
2023-02-09T21:28:57.332Z,-3.9
2023-02-09T21:32:53.805Z,-3.8
2023-02-09T21:34:54.989Z,-3.9
2023-02-09T21:38:56.508Z,-3.7
2023-02-09T21:40:53.687Z,-3.7
2023-02-09T21:44:57.365Z,-3.6
2023-02-09T21:46:58.971Z,-3.8
2023-02-09T21:49:00.825Z,-3.6
2023-02-09T21:50:57.550Z,-3.5
2023-02-09T21:52:57.370Z,-3.5
2023-02-09T21:56:56.507Z,-3.5
2023-02-09T21:58:55.040Z,-3.5
2023-02-09T22:02:57.413Z,-3.4
2023-02-09T22:04:57.314Z,-3.3
2023-02-09T22:06:59.799Z,-3.4
2023-02-09T22:08:54.962Z,-3.3
2023-02-09T22:10:56.457Z,-3.3
2023-02-09T22:13:00.542Z,-3.4
2023-02-09T22:15:00.729Z,-3.4
2023-02-09T22:16:56.479Z,-3.4
2023-02-09T22:20:53.622Z,-3.6
2023-02-09T22:22:54.240Z,-3.6
2023-02-09T22:26:53.766Z,-3.7
2023-02-09T22:29:00.875Z,-3.7
2023-02-09T22:30:59.735Z,-3.7
2023-02-09T22:32:54.908Z,-3.8
2023-02-09T22:34:54.831Z,-3.6
2023-02-09T22:38:57.441Z,-3.6
2023-02-09T22:40:54.995Z,-3.6
2023-02-09T22:44:56.652Z,-3.7
2023-02-09T22:46:54.902Z,-3.8
2023-02-09T22:49:00.648Z,-3.7
2023-02-09T22:50:59.700Z,-3.5
2023-02-09T22:52:56.316Z,-3.7
2023-02-09T22:56:56.295Z,-3.8
2023-02-09T22:58:57.060Z,-3.6
2023-02-09T23:03:00.920Z,-3.7
2023-02-09T23:04:54.487Z,-3.7
2023-02-09T23:08:53.819Z,-3.7
2023-02-09T23:10:53.866Z,-3.7
2023-02-09T23:14:57.465Z,-3.5
2023-02-09T23:16:55.105Z,-3.7
2023-02-09T23:19:00.447Z,-3.8
2023-02-09T23:20:53.722Z,-3.6
2023-02-09T23:22:57.984Z,-3.6
2023-02-09T23:26:54.936Z,-4.4
2023-02-09T23:28:56.980Z,-4.9
2023-02-09T23:32:53.800Z,-5
2023-02-09T23:34:57.326Z,-5
2023-02-09T23:37:02.040Z,-5
2023-02-09T23:38:57.496Z,-5.2
2023-02-09T23:40:55.661Z,-5
2023-02-09T23:45:01.021Z,-4.9
2023-02-09T23:46:56.056Z,-4.9
2023-02-09T23:50:54.841Z,-5
2023-02-09T23:52:54.953Z,-5.1
2023-02-09T23:55:00.245Z,-5.1
2023-02-09T23:56:57.735Z,-5
2023-02-09T23:59:02.317Z,-5
